sensor_id;sensor_type;location;lat;lon;timestamp;pressure;altitude;pressure_sealevel;temperature;humidity
60725;BME280;59881;36.722;-4.462;2022-12-07T00:01:42;100885.91;;;12.10;100.00
60725;BME280;59881;36.722;-4.462;2022-12-07T00:04:11;100899.72;;;12.26;100.00
60725;BME280;59881;36.722;-4.462;2022-12-07T00:06:42;100377.66;;;8.79;100.00
60725;BME280;59881;36.722;-4.462;2022-12-07T00:09:15;100793.50;;;11.58;100.00
60725;BME280;59881;36.722;-4.462;2022-12-07T00:11:41;100892.00;;;12.23;100.00
60725;BME280;59881;36.722;-4.462;2022-12-07T00:14:11;100350.31;;;8.96;100.00
60725;BME280;59881;36.722;-4.462;2022-12-07T00:16:37;100859.19;;;12.01;100.00
60725;BME280;59881;36.722;-4.462;2022-12-07T00:19:03;100882.72;;;12.17;100.00
60725;BME280;59881;36.722;-4.462;2022-12-07T00:21:32;100881.88;;;12.17;100.00
60725;BME280;59881;36.722;-4.462;2022-12-07T00:23:57;100872.38;;;12.14;100.00
60725;BME280;59881;36.722;-4.462;2022-12-07T00:26:26;100657.75;;;10.87;100.00
60725;BME280;59881;36.722;-4.462;2022-12-07T00:28:56;100867.72;;;12.18;100.00
60725;BME280;59881;36.722;-4.462;2022-12-07T00:31:26;100872.78;;;12.21;100.00
60725;BME280;59881;36.722;-4.462;2022-12-07T00:33:52;100777.34;;;11.76;100.00
60725;BME280;59881;36.722;-4.462;2022-12-07T00:36:20;100860.94;;;12.27;100.00
60725;BME280;59881;36.722;-4.462;2022-12-07T00:38:46;100762.69;;;11.72;100.00
60725;BME280;59881;36.722;-4.462;2022-12-07T00:41:20;100824.00;;;12.14;100.00
60725;BME280;59881;36.722;-4.462;2022-12-07T00:43:47;100842.88;;;12.33;100.00
60725;BME280;59881;36.722;-4.462;2022-12-07T00:46:13;100836.63;;;12.34;100.00
60725;BME280;59881;36.722;-4.462;2022-12-07T00:48:40;100837.44;;;12.35;100.00
60725;BME280;59881;36.722;-4.462;2022-12-07T00:51:06;100397.16;;;9.69;100.00
60725;BME280;59881;36.722;-4.462;2022-12-07T00:53:35;100840.00;;;12.36;100.00
60725;BME280;59881;36.722;-4.462;2022-12-07T00:56:08;100806.00;;;12.19;100.00
60725;BME280;59881;36.722;-4.462;2022-12-07T00:58:35;100783.25;;;12.05;100.00
60725;BME280;59881;36.722;-4.462;2022-12-07T01:01:02;100811.28;;;12.19;100.00
60725;BME280;59881;36.722;-4.462;2022-12-07T01:03:27;100754.00;;;11.83;100.00
60725;BME280;59881;36.722;-4.462;2022-12-07T01:05:54;100831.84;;;12.39;100.00
60725;BME280;59881;36.722;-4.462;2022-12-07T01:08:22;100418.75;;;9.87;100.00
60725;BME280;59881;36.722;-4.462;2022-12-07T01:10:48;100792.56;;;12.22;100.00
60725;BME280;59881;36.722;-4.462;2022-12-07T01:13:14;100828.06;;;12.31;100.00
60725;BME280;59881;36.722;-4.462;2022-12-07T01:15:43;100832.09;;;12.24;100.00
60725;BME280;59881;36.722;-4.462;2022-12-07T01:18:09;100349.13;;;9.27;100.00
60725;BME280;59881;36.722;-4.462;2022-12-07T01:20:36;100330.47;;;9.04;100.00
60725;BME280;59881;36.722;-4.462;2022-12-07T01:23:02;100631.06;;;10.79;100.00
60725;BME280;59881;36.722;-4.462;2022-12-07T01:25:27;100815.03;;;12.04;100.00
60725;BME280;59881;36.722;-4.462;2022-12-07T01:27:53;100779.66;;;11.80;100.00
60725;BME280;59881;36.722;-4.462;2022-12-07T01:30:18;100294.03;;;8.85;100.00
60725;BME280;59881;36.722;-4.462;2022-12-07T01:32:44;100798.97;;;11.81;100.00
60725;BME280;59881;36.722;-4.462;2022-12-07T01:35:09;100498.88;;;10.08;100.00
60725;BME280;59881;36.722;-4.462;2022-12-07T01:37:38;99994.50;;;6.31;100.00
60725;BME280;59881;36.722;-4.462;2022-12-07T01:40:06;100809.13;;;12.00;100.00
60725;BME280;59881;36.722;-4.462;2022-12-07T01:42:32;100890.19;;;11.72;100.00
60725;BME280;59881;36.722;-4.462;2022-12-07T01:47:44;100737.47;;;11.55;100.00
60725;BME280;59881;36.722;-4.462;2022-12-07T01:50:12;100714.91;;;11.38;100.00
60725;BME280;59881;36.722;-4.462;2022-12-07T01:52:39;100868.97;;;11.61;100.00
60725;BME280;59881;36.722;-4.462;2022-12-07T01:55:10;100771.66;;;11.56;100.00
60725;BME280;59881;36.722;-4.462;2022-12-07T01:57:42;100777.78;;;11.57;100.00
60725;BME280;59881;36.722;-4.462;2022-12-07T02:00:10;100797.19;;;11.69;100.00
60725;BME280;59881;36.722;-4.462;2022-12-07T02:02:44;100753.00;;;11.34;100.00
60725;BME280;59881;36.722;-4.462;2022-12-07T02:05:11;100900.41;;;11.64;100.00
60725;BME280;59881;36.722;-4.462;2022-12-07T02:07:37;100796.66;;;11.64;100.00
60725;BME280;59881;36.722;-4.462;2022-12-07T02:10:19;100408.38;;;8.49;100.00
60725;BME280;59881;36.722;-4.462;2022-12-07T02:12:49;100714.38;;;11.20;100.00
60725;BME280;59881;36.722;-4.462;2022-12-07T02:15:15;100709.50;;;11.27;100.00
60725;BME280;59881;36.722;-4.462;2022-12-07T02:17:47;100779.44;;;11.71;100.00
60725;BME280;59881;36.722;-4.462;2022-12-07T02:20:29;100779.44;;;11.71;100.00
60725;BME280;59881;36.722;-4.462;2022-12-07T02:28:31;100906.44;;;11.66;100.00
60725;BME280;59881;36.722;-4.462;2022-12-07T02:31:03;100781.81;;;11.63;100.00
60725;BME280;59881;36.722;-4.462;2022-12-07T02:33:39;101034.47;;;11.59;100.00
60725;BME280;59881;36.722;-4.462;2022-12-07T02:36:31;100368.31;;;9.02;100.00
60725;BME280;59881;36.722;-4.462;2022-12-07T02:39:25;100787.41;;;11.58;100.00
60725;BME280;59881;36.722;-4.462;2022-12-07T02:41:58;100777.13;;;11.53;100.00
60725;BME280;59881;36.722;-4.462;2022-12-07T02:44:28;100691.25;;;10.98;100.00
60725;BME280;59881;36.722;-4.462;2022-12-07T02:47:05;99942.91;;;6.48;100.00
60725;BME280;59881;36.722;-4.462;2022-12-07T02:49:32;100693.25;;;11.20;100.00
60725;BME280;59881;36.722;-4.462;2022-12-07T02:51:58;100853.00;;;11.37;99.99
60725;BME280;59881;36.722;-4.462;2022-12-07T02:54:24;100661.84;;;11.04;99.61
60725;BME280;59881;36.722;-4.462;2022-12-07T02:57:01;100757.09;;;11.64;98.96
60725;BME280;59881;36.722;-4.462;2022-12-07T03:05:30;100761.63;;;11.62;97.46
60725;BME280;59881;36.722;-4.462;2022-12-07T03:15:55;100770.59;;;11.46;97.61
60725;BME280;59881;36.722;-4.462;2022-12-07T03:18:24;100662.69;;;10.79;97.41
60725;BME280;59881;36.722;-4.462;2022-12-07T03:20:53;100407.34;;;8.94;96.81
60725;BME280;59881;36.722;-4.462;2022-12-07T03:23:21;100683.56;;;10.82;96.82
60725;BME280;59881;36.722;-4.462;2022-12-07T03:25:53;100773.38;;;11.45;96.27
60725;BME280;59881;36.722;-4.462;2022-12-07T03:28:24;100731.56;;;11.26;96.11
60725;BME280;59881;36.722;-4.462;2022-12-07T03:31:05;100656.38;;;10.82;96.33
60725;BME280;59881;36.722;-4.462;2022-12-07T03:33:38;100756.06;;;11.41;96.45
60725;BME280;59881;36.722;-4.462;2022-12-07T03:36:33;100749.19;;;11.38;96.87
60725;BME280;59881;36.722;-4.462;2022-12-07T03:39:17;100746.75;;;11.35;96.80
60725;BME280;59881;36.722;-4.462;2022-12-07T03:41:46;100749.63;;;11.32;96.41
60725;BME280;59881;36.722;-4.462;2022-12-07T03:44:14;100718.59;;;11.10;96.55
60725;BME280;59881;36.722;-4.462;2022-12-07T03:46:57;100742.63;;;11.31;96.82
60725;BME280;59881;36.722;-4.462;2022-12-07T03:49:29;100733.88;;;11.30;96.59
60725;BME280;59881;36.722;-4.462;2022-12-07T03:57:22;100768.38;;;10.62;96.98
60725;BME280;59881;36.722;-4.462;2022-12-07T03:59:49;100749.38;;;11.22;96.95
60725;BME280;59881;36.722;-4.462;2022-12-07T04:02:16;100660.56;;;10.71;96.74
60725;BME280;59881;36.722;-4.462;2022-12-07T04:04:43;100712.56;;;10.95;96.71
60725;BME280;59881;36.722;-4.462;2022-12-07T04:07:09;100722.88;;;10.98;97.17
60725;BME280;59881;36.722;-4.462;2022-12-07T04:09:35;100759.63;;;11.14;96.84
60725;BME280;59881;36.722;-4.462;2022-12-07T04:12:00;100715.28;;;10.93;96.79
60725;BME280;59881;36.722;-4.462;2022-12-07T04:14:26;100748.22;;;11.13;97.09
60725;BME280;59881;36.722;-4.462;2022-12-07T04:16:54;100736.09;;;11.11;97.08
60725;BME280;59881;36.722;-4.462;2022-12-07T04:19:24;100741.50;;;11.09;97.35
60725;BME280;59881;36.722;-4.462;2022-12-07T04:21:50;100712.88;;;10.90;97.61
60725;BME280;59881;36.722;-4.462;2022-12-07T04:24:16;100749.41;;;11.09;97.19
60725;BME280;59881;36.722;-4.462;2022-12-07T04:26:42;100556.66;;;9.97;96.99
60725;BME280;59881;36.722;-4.462;2022-12-07T04:29:08;100657.94;;;10.59;97.23
60725;BME280;59881;36.722;-4.462;2022-12-07T04:31:35;100726.09;;;11.03;97.48
60725;BME280;59881;36.722;-4.462;2022-12-07T04:34:01;100721.00;;;11.00;97.21
60725;BME280;59881;36.722;-4.462;2022-12-07T04:36:26;100715.84;;;10.98;97.08
60725;BME280;59881;36.722;-4.462;2022-12-07T04:38:55;100717.75;;;10.96;97.07
60725;BME280;59881;36.722;-4.462;2022-12-07T04:41:21;100577.53;;;10.13;96.96
60725;BME280;59881;36.722;-4.462;2022-12-07T04:43:56;100707.94;;;10.98;97.13
60725;BME280;59881;36.722;-4.462;2022-12-07T04:46:23;100368.91;;;8.22;96.92
60725;BME280;59881;36.722;-4.462;2022-12-07T04:48:50;100714.78;;;11.01;97.23
60725;BME280;59881;36.722;-4.462;2022-12-07T04:51:19;100710.25;;;11.03;97.44
60725;BME280;59881;36.722;-4.462;2022-12-07T04:53:45;100705.00;;;11.03;97.52
60725;BME280;59881;36.722;-4.462;2022-12-07T04:56:10;100683.88;;;10.90;97.47
60725;BME280;59881;36.722;-4.462;2022-12-07T04:58:36;100732.59;;;10.97;97.78
60725;BME280;59881;36.722;-4.462;2022-12-07T05:01:01;100710.16;;;10.92;97.70
60725;BME280;59881;36.722;-4.462;2022-12-07T05:03:27;100709.59;;;10.87;98.00
60725;BME280;59881;36.722;-4.462;2022-12-07T05:05:52;100708.25;;;10.81;98.00
60725;BME280;59881;36.722;-4.462;2022-12-07T05:08:17;100710.03;;;10.81;98.50
60725;BME280;59881;36.722;-4.462;2022-12-07T05:10:43;100648.19;;;10.46;98.72
60725;BME280;59881;36.722;-4.462;2022-12-07T05:13:09;100715.41;;;10.79;98.98
60725;BME280;59881;36.722;-4.462;2022-12-07T05:15:34;100208.22;;;7.63;98.65
60725;BME280;59881;36.722;-4.462;2022-12-07T05:18:00;100616.94;;;10.14;99.33
60725;BME280;59881;36.722;-4.462;2022-12-07T05:20:25;100688.59;;;10.60;98.69
60725;BME280;59881;36.722;-4.462;2022-12-07T05:22:51;100262.88;;;7.98;98.29
60725;BME280;59881;36.722;-4.462;2022-12-07T05:25:16;100621.94;;;9.36;98.11
60725;BME280;59881;36.722;-4.462;2022-12-07T05:27:42;100696.13;;;10.51;98.67
60725;BME280;59881;36.722;-4.462;2022-12-07T05:30:08;100738.69;;;10.72;98.64
60725;BME280;59881;36.722;-4.462;2022-12-07T05:32:33;100133.06;;;7.06;98.21
60725;BME280;59881;36.722;-4.462;2022-12-07T05:34:59;100664.44;;;10.26;98.60
60725;BME280;59881;36.722;-4.462;2022-12-07T05:37:24;100350.34;;;8.25;98.06
60725;BME280;59881;36.722;-4.462;2022-12-07T05:39:50;100660.41;;;10.07;98.47
60725;BME280;59881;36.722;-4.462;2022-12-07T05:42:15;100712.41;;;10.31;98.31
60725;BME280;59881;36.722;-4.462;2022-12-07T05:44:44;100743.47;;;10.53;98.61
60725;BME280;59881;36.722;-4.462;2022-12-07T05:47:11;101010.38;;;10.53;98.94
60725;BME280;59881;36.722;-4.462;2022-12-07T05:49:37;100746.00;;;10.54;99.04
60725;BME280;59881;36.722;-4.462;2022-12-07T05:52:03;100742.72;;;10.51;98.89
60725;BME280;59881;36.722;-4.462;2022-12-07T05:54:28;100651.19;;;10.00;98.93
60725;BME280;59881;36.722;-4.462;2022-12-07T05:56:54;100741.13;;;10.48;99.04
60725;BME280;59881;36.722;-4.462;2022-12-07T05:59:20;100733.22;;;10.48;99.19
60725;BME280;59881;36.722;-4.462;2022-12-07T06:02:10;100731.66;;;10.46;99.08
60725;BME280;59881;36.722;-4.462;2022-12-07T06:04:43;100738.72;;;10.45;99.32
60725;BME280;59881;36.722;-4.462;2022-12-07T06:07:10;100987.97;;;10.46;99.23
60725;BME280;59881;36.722;-4.462;2022-12-07T06:09:36;100735.97;;;10.47;99.39
60725;BME280;59881;36.722;-4.462;2022-12-07T06:12:03;100729.94;;;10.45;98.63
60725;BME280;59881;36.722;-4.462;2022-12-07T06:14:47;100644.50;;;9.82;98.61
60725;BME280;59881;36.722;-4.462;2022-12-07T06:17:13;100777.03;;;10.37;98.77
60725;BME280;59881;36.722;-4.462;2022-12-07T06:19:39;100671.41;;;10.00;98.83
60725;BME280;59881;36.722;-4.462;2022-12-07T06:22:05;100729.63;;;10.37;99.37
60725;BME280;59881;36.722;-4.462;2022-12-07T06:24:32;100724.34;;;10.37;99.50
60725;BME280;59881;36.722;-4.462;2022-12-07T06:26:58;100724.44;;;10.35;99.14
60725;BME280;59881;36.722;-4.462;2022-12-07T06:29:23;100671.72;;;9.95;99.21
60725;BME280;59881;36.722;-4.462;2022-12-07T06:31:49;100609.69;;;9.64;99.71
60725;BME280;59881;36.722;-4.462;2022-12-07T06:34:19;100011.41;;;5.95;99.29
60725;BME280;59881;36.722;-4.462;2022-12-07T06:36:46;100738.00;;;10.29;99.56
60725;BME280;59881;36.722;-4.462;2022-12-07T06:39:20;100744.19;;;10.28;99.76
60725;BME280;59881;36.722;-4.462;2022-12-07T06:41:45;101036.47;;;10.28;100.00
60725;BME280;59881;36.722;-4.462;2022-12-07T06:44:11;100734.59;;;10.27;100.00
60725;BME280;59881;36.722;-4.462;2022-12-07T06:46:36;99936.34;;;5.37;99.50
60725;BME280;59881;36.722;-4.462;2022-12-07T06:49:03;100742.47;;;10.27;100.00
60725;BME280;59881;36.722;-4.462;2022-12-07T06:51:30;99761.19;;;4.33;99.36
60725;BME280;59881;36.722;-4.462;2022-12-07T06:53:55;100732.66;;;10.30;100.00
60725;BME280;59881;36.722;-4.462;2022-12-07T06:56:21;100736.13;;;10.31;99.66
60725;BME280;59881;36.722;-4.462;2022-12-07T06:58:48;100639.63;;;9.76;99.19
60725;BME280;59881;36.722;-4.462;2022-12-07T07:01:16;100436.44;;;7.76;98.59
60725;BME280;59881;36.722;-4.462;2022-12-07T07:03:43;100900.59;;;10.25;98.99
60725;BME280;59881;36.722;-4.462;2022-12-07T07:06:09;100699.97;;;10.06;98.99
60725;BME280;59881;36.722;-4.462;2022-12-07T07:08:36;100713.13;;;10.06;98.91
60725;BME280;59881;36.722;-4.462;2022-12-07T07:11:03;100739.00;;;10.26;98.85
60725;BME280;59881;36.722;-4.462;2022-12-07T07:13:28;100614.66;;;9.54;98.86
60725;BME280;59881;36.722;-4.462;2022-12-07T07:15:54;100192.59;;;7.04;98.65
60725;BME280;59881;36.722;-4.462;2022-12-07T07:18:20;100697.50;;;10.17;98.82
60725;BME280;59881;36.722;-4.462;2022-12-07T07:20:46;100699.59;;;10.25;97.81
60725;BME280;59881;36.722;-4.462;2022-12-07T07:23:11;100723.34;;;10.52;96.78
60725;BME280;59881;36.722;-4.462;2022-12-07T07:25:37;100432.97;;;7.75;95.01
60725;BME280;59881;36.722;-4.462;2022-12-07T07:28:03;100714.78;;;10.48;94.67
60725;BME280;59881;36.722;-4.462;2022-12-07T07:30:29;100728.13;;;10.72;94.23
60725;BME280;59881;36.722;-4.462;2022-12-07T07:32:58;100636.72;;;10.20;93.86
60725;BME280;59881;36.722;-4.462;2022-12-07T07:35:25;100734.38;;;10.84;94.05
60725;BME280;59881;36.722;-4.462;2022-12-07T07:37:51;100735.22;;;10.97;93.40
60725;BME280;59881;36.722;-4.462;2022-12-07T07:40:16;100870.69;;;11.09;93.31
60725;BME280;59881;36.722;-4.462;2022-12-07T07:42:42;100636.72;;;10.60;93.14
60725;BME280;59881;36.722;-4.462;2022-12-07T07:45:08;100285.25;;;8.59;92.51
60725;BME280;59881;36.722;-4.462;2022-12-07T07:47:34;100510.66;;;10.15;92.77
60725;BME280;59881;36.722;-4.462;2022-12-07T07:49:59;100620.94;;;10.98;91.98
60725;BME280;59881;36.722;-4.462;2022-12-07T07:52:25;100697.22;;;11.64;91.41
60725;BME280;59881;36.722;-4.462;2022-12-07T07:54:50;100702.38;;;11.91;90.33
60725;BME280;59881;36.722;-4.462;2022-12-07T07:57:17;100739.84;;;12.33;89.34
60725;BME280;59881;36.722;-4.462;2022-12-07T07:59:42;100704.44;;;12.36;87.91
60725;BME280;59881;36.722;-4.462;2022-12-07T08:02:16;100729.84;;;13.43;86.76
60725;BME280;59881;36.722;-4.462;2022-12-07T08:04:42;100725.91;;;15.42;82.32
60725;BME280;59881;36.722;-4.462;2022-12-07T08:07:07;100661.44;;;15.30;73.75
60725;BME280;59881;36.722;-4.462;2022-12-07T08:09:33;100650.31;;;15.06;71.23
60725;BME280;59881;36.722;-4.462;2022-12-07T08:11:59;100723.22;;;15.32;70.15
60725;BME280;59881;36.722;-4.462;2022-12-07T08:14:24;100392.75;;;12.79;68.85
60725;BME280;59881;36.722;-4.462;2022-12-07T08:16:51;100605.84;;;14.14;68.34
60725;BME280;59881;36.722;-4.462;2022-12-07T08:19:16;100799.78;;;14.52;69.15
60725;BME280;59881;36.722;-4.462;2022-12-07T08:21:42;100353.56;;;12.07;69.69
60725;BME280;59881;36.722;-4.462;2022-12-07T08:24:07;100392.44;;;12.39;70.12
60725;BME280;59881;36.722;-4.462;2022-12-07T08:26:33;100717.72;;;14.50;69.56
60725;BME280;59881;36.722;-4.462;2022-12-07T08:28:59;100819.53;;;14.70;69.09
60725;BME280;59881;36.722;-4.462;2022-12-07T08:31:24;100649.75;;;14.60;68.19
60725;BME280;59881;36.722;-4.462;2022-12-07T08:33:50;100840.47;;;15.05;67.32
60725;BME280;59881;36.722;-4.462;2022-12-07T08:36:16;100689.91;;;15.19;66.26
60725;BME280;59881;36.722;-4.462;2022-12-07T08:38:42;100325.16;;;13.30;65.60
60725;BME280;59881;36.722;-4.462;2022-12-07T08:41:08;100719.16;;;16.09;64.69
60725;BME280;59881;36.722;-4.462;2022-12-07T08:43:34;100718.22;;;16.59;63.48
60725;BME280;59881;36.722;-4.462;2022-12-07T08:46:25;100693.63;;;17.61;61.78
60725;BME280;59881;36.722;-4.462;2022-12-07T08:48:58;100700.78;;;19.82;56.23
60725;BME280;59881;36.722;-4.462;2022-12-07T08:51:27;100674.13;;;24.10;44.39
60725;BME280;59881;36.722;-4.462;2022-12-07T08:53:54;100342.84;;;22.11;39.50
60725;BME280;59881;36.722;-4.462;2022-12-07T08:56:20;100634.72;;;21.93;42.83
60725;BME280;59881;36.722;-4.462;2022-12-07T08:58:47;100701.28;;;20.61;46.11
60725;BME280;59881;36.722;-4.462;2022-12-07T09:01:12;100680.28;;;19.99;47.99
60725;BME280;59881;36.722;-4.462;2022-12-07T09:03:38;100682.72;;;22.95;45.84
60725;BME280;59881;36.722;-4.462;2022-12-07T09:06:04;100624.09;;;25.22;39.40
60725;BME280;59881;36.722;-4.462;2022-12-07T09:08:34;100683.13;;;25.52;37.13
60725;BME280;59881;36.722;-4.462;2022-12-07T09:11:01;100687.97;;;26.45;36.38
60725;BME280;59881;36.722;-4.462;2022-12-07T09:13:26;100529.59;;;28.86;30.56
60725;BME280;59881;36.722;-4.462;2022-12-07T09:15:52;100672.50;;;30.62;28.71
60725;BME280;59881;36.722;-4.462;2022-12-07T09:18:17;100679.19;;;29.94;28.93
60725;BME280;59881;36.722;-4.462;2022-12-07T09:20:43;100694.56;;;27.42;32.01
60725;BME280;59881;36.722;-4.462;2022-12-07T09:23:08;100717.66;;;24.78;36.37
60725;BME280;59881;36.722;-4.462;2022-12-07T09:25:34;100720.50;;;25.61;37.78
60725;BME280;59881;36.722;-4.462;2022-12-07T09:28:00;100706.75;;;30.09;30.12
60725;BME280;59881;36.722;-4.462;2022-12-07T09:30:27;100709.81;;;32.30;27.02
60725;BME280;59881;36.722;-4.462;2022-12-07T09:32:54;100726.28;;;35.47;23.16
60725;BME280;59881;36.722;-4.462;2022-12-07T09:35:20;100710.59;;;35.27;23.27
60725;BME280;59881;36.722;-4.462;2022-12-07T09:37:46;100712.00;;;36.39;21.27
60725;BME280;59881;36.722;-4.462;2022-12-07T09:40:12;100433.56;;;32.41;23.45
60725;BME280;59881;36.722;-4.462;2022-12-07T09:42:41;100405.22;;;30.21;26.76
60725;BME280;59881;36.722;-4.462;2022-12-07T09:45:17;100725.09;;;36.11;22.17
60725;BME280;59881;36.722;-4.462;2022-12-07T09:47:45;100729.69;;;39.74;18.47
60725;BME280;59881;36.722;-4.462;2022-12-07T09:50:23;100736.56;;;37.46;20.67
60725;BME280;59881;36.722;-4.462;2022-12-07T09:52:50;100697.78;;;35.53;21.11
60725;BME280;59881;36.722;-4.462;2022-12-07T09:55:24;100752.88;;;34.12;23.04
60725;BME280;59881;36.722;-4.462;2022-12-07T09:57:51;100758.00;;;31.72;24.59
60725;BME280;59881;36.722;-4.462;2022-12-07T10:00:19;100574.69;;;27.86;28.51
60725;BME280;59881;36.722;-4.462;2022-12-07T10:02:51;100753.97;;;27.89;30.20
60725;BME280;59881;36.722;-4.462;2022-12-07T10:05:30;100740.47;;;25.32;33.27
60725;BME280;59881;36.722;-4.462;2022-12-07T10:07:56;100771.81;;;23.07;36.98
60725;BME280;59881;36.722;-4.462;2022-12-07T10:10:27;100718.22;;;21.34;40.57
60725;BME280;59881;36.722;-4.462;2022-12-07T10:13:03;100694.88;;;20.21;42.81
60725;BME280;59881;36.722;-4.462;2022-12-07T10:18:39;100358.81;;;16.82;46.27
60725;BME280;59881;36.722;-4.462;2022-12-07T10:21:15;100763.31;;;19.11;47.88
60725;BME280;59881;36.722;-4.462;2022-12-07T10:28:59;100763.13;;;18.87;49.79
60725;BME280;59881;36.722;-4.462;2022-12-07T10:31:26;100933.09;;;18.86;50.32
60725;BME280;59881;36.722;-4.462;2022-12-07T10:33:57;100719.34;;;18.44;50.81
60725;BME280;59881;36.722;-4.462;2022-12-07T10:36:34;100863.19;;;18.55;51.41
60725;BME280;59881;36.722;-4.462;2022-12-07T10:39:18;100767.91;;;18.29;52.65
60725;BME280;59881;36.722;-4.462;2022-12-07T10:41:58;100764.53;;;18.09;53.64
60725;BME280;59881;36.722;-4.462;2022-12-07T10:44:26;100934.97;;;18.11;54.31
60725;BME280;59881;36.722;-4.462;2022-12-07T10:55:03;100742.72;;;19.82;53.14
60725;BME280;59881;36.722;-4.462;2022-12-07T11:00:23;100735.56;;;20.82;49.95
60725;BME280;59881;36.722;-4.462;2022-12-07T11:05:27;100702.91;;;20.87;48.76
60725;BME280;59881;36.722;-4.462;2022-12-07T11:13:24;100700.91;;;20.81;48.57
60725;BME280;59881;36.722;-4.462;2022-12-07T11:22:06;100695.84;;;20.37;48.77
60725;BME280;59881;36.722;-4.462;2022-12-07T11:30:34;100674.78;;;20.17;49.11
60725;BME280;59881;36.722;-4.462;2022-12-07T11:38:46;100619.06;;;19.72;50.21
60725;BME280;59881;36.722;-4.462;2022-12-07T11:41:15;100660.38;;;20.10;50.07
60725;BME280;59881;36.722;-4.462;2022-12-07T11:46:52;100643.53;;;20.18;50.09
60725;BME280;59881;36.722;-4.462;2022-12-07T11:55:02;100594.69;;;20.65;48.25
60725;BME280;59881;36.722;-4.462;2022-12-07T11:57:39;100564.78;;;20.29;48.02
60725;BME280;59881;36.722;-4.462;2022-12-07T12:00:13;100557.59;;;19.96;48.67
60725;BME280;59881;36.722;-4.462;2022-12-07T12:03:10;100593.69;;;19.92;49.51
60725;BME280;59881;36.722;-4.462;2022-12-07T12:05:38;100600.81;;;19.67;49.81
60725;BME280;59881;36.722;-4.462;2022-12-07T12:08:16;100565.63;;;19.29;50.41
60725;BME280;59881;36.722;-4.462;2022-12-07T12:13:58;100593.44;;;19.53;51.67
60725;BME280;59881;36.722;-4.462;2022-12-07T12:19:40;100714.84;;;19.58;51.50
60725;BME280;59881;36.722;-4.462;2022-12-07T12:22:18;100548.69;;;19.63;52.34
60725;BME280;59881;36.722;-4.462;2022-12-07T12:24:50;100571.63;;;19.82;52.35
60725;BME280;59881;36.722;-4.462;2022-12-07T12:27:27;100212.25;;;17.45;52.06
60725;BME280;59881;36.722;-4.462;2022-12-07T12:30:01;99989.50;;;15.99;52.38
60725;BME280;59881;36.722;-4.462;2022-12-07T12:32:39;100553.47;;;19.43;52.69
60725;BME280;59881;36.722;-4.462;2022-12-07T12:37:48;100553.94;;;19.89;52.39
60725;BME280;59881;36.722;-4.462;2022-12-07T12:50:31;100559.91;;;20.40;51.87
60725;BME280;59881;36.722;-4.462;2022-12-07T12:53:12;100550.06;;;20.24;52.30
60725;BME280;59881;36.722;-4.462;2022-12-07T13:00:46;100533.41;;;18.88;56.50
60725;BME280;59881;36.722;-4.462;2022-12-07T13:03:26;100498.50;;;18.47;57.62
60725;BME280;59881;36.722;-4.462;2022-12-07T13:08:42;100477.03;;;18.49;58.69
60725;BME280;59881;36.722;-4.462;2022-12-07T13:11:41;100523.47;;;18.98;58.49
60725;BME280;59881;36.722;-4.462;2022-12-07T13:14:41;100512.72;;;19.25;58.14
60725;BME280;59881;36.722;-4.462;2022-12-07T13:17:11;100471.91;;;19.06;57.56
60725;BME280;59881;36.722;-4.462;2022-12-07T13:27:41;100510.75;;;19.43;58.09
60725;BME280;59881;36.722;-4.462;2022-12-07T13:30:18;100504.22;;;19.46;57.78
60725;BME280;59881;36.722;-4.462;2022-12-07T13:32:51;100474.81;;;19.21;57.58
60725;BME280;59881;36.722;-4.462;2022-12-07T13:35:35;100148.69;;;16.46;57.96
60725;BME280;59881;36.722;-4.462;2022-12-07T13:38:14;100500.13;;;18.74;58.17
60725;BME280;59881;36.722;-4.462;2022-12-07T13:40:42;100497.69;;;18.55;58.91
60725;BME280;59881;36.722;-4.462;2022-12-07T13:43:14;100505.69;;;18.47;59.82
60725;BME280;59881;36.722;-4.462;2022-12-07T13:45:41;100498.44;;;18.39;60.03
60725;BME280;59881;36.722;-4.462;2022-12-07T13:48:26;100500.19;;;18.22;60.11
60725;BME280;59881;36.722;-4.462;2022-12-07T13:50:55;100496.09;;;18.10;60.94
60725;BME280;59881;36.722;-4.462;2022-12-07T13:53:21;99603.47;;;12.39;60.93
60725;BME280;59881;36.722;-4.462;2022-12-07T13:55:47;100273.41;;;16.57;61.58
60725;BME280;59881;36.722;-4.462;2022-12-07T13:58:13;100507.00;;;17.98;62.09
60725;BME280;59881;36.722;-4.462;2022-12-07T14:00:40;100497.72;;;18.03;62.29
60725;BME280;59881;36.722;-4.462;2022-12-07T14:05:39;100387.13;;;17.19;63.21
60725;BME280;59881;36.722;-4.462;2022-12-07T14:13:31;100482.59;;;17.49;66.35
60725;BME280;59881;36.722;-4.462;2022-12-07T14:15:59;100120.66;;;14.77;66.96
60725;BME280;59881;36.722;-4.462;2022-12-07T14:18:40;100462.03;;;17.59;67.63
60725;BME280;59881;36.722;-4.462;2022-12-07T14:21:18;100445.81;;;17.53;68.21
60725;BME280;59881;36.722;-4.462;2022-12-07T14:23:45;100042.44;;;14.91;68.33
60725;BME280;59881;36.722;-4.462;2022-12-07T14:26:15;100474.38;;;17.61;69.31
60725;BME280;59881;36.722;-4.462;2022-12-07T14:28:43;100450.19;;;17.36;69.99
60725;BME280;59881;36.722;-4.462;2022-12-07T14:31:22;100471.25;;;17.47;70.35
60725;BME280;59881;36.722;-4.462;2022-12-07T14:33:49;100389.69;;;16.92;70.77
60725;BME280;59881;36.722;-4.462;2022-12-07T14:36:15;100465.91;;;17.29;71.09
60725;BME280;59881;36.722;-4.462;2022-12-07T14:38:40;100463.63;;;17.16;71.90
60725;BME280;59881;36.722;-4.462;2022-12-07T14:41:25;100461.53;;;17.10;72.48
60725;BME280;59881;36.722;-4.462;2022-12-07T14:44:12;100564.72;;;16.99;72.98
60725;BME280;59881;36.722;-4.462;2022-12-07T14:46:38;100473.59;;;16.87;73.53
60725;BME280;59881;36.722;-4.462;2022-12-07T14:49:04;100470.94;;;16.77;73.89
60725;BME280;59881;36.722;-4.462;2022-12-07T14:51:30;100061.13;;;13.74;73.92
60725;BME280;59881;36.722;-4.462;2022-12-07T14:53:56;100465.78;;;16.85;74.39